createdAt,value
2019-06-01T00:01:14.894Z,10.00
2019-06-01T00:03:46.903Z,10.80
2019-06-01T00:06:17.761Z,13.20
2019-06-01T00:08:49.333Z,9.43
2019-06-01T00:11:20.094Z,10.07
2019-06-01T00:13:50.743Z,10.97
2019-06-01T00:16:21.593Z,10.13
2019-06-01T00:18:52.301Z,10.30
2019-06-01T00:21:22.983Z,11.73
2019-06-01T00:23:53.668Z,9.00
2019-06-01T00:26:24.341Z,8.70
2019-06-01T00:28:55.070Z,10.97
2019-06-01T00:31:25.860Z,8.93
2019-06-01T00:33:56.515Z,9.27
2019-06-01T00:36:27.235Z,8.97
2019-06-01T00:38:57.958Z,9.87
2019-06-01T00:41:29.182Z,8.80
2019-06-01T00:43:59.895Z,9.30
2019-06-01T00:46:30.578Z,10.73
2019-06-01T00:49:01.280Z,12.57
2019-06-01T00:51:32.232Z,9.77
2019-06-01T00:54:03.012Z,10.47
2019-06-01T00:56:33.806Z,12.70
2019-06-01T00:59:16.927Z,12.77
2019-06-01T01:01:57.195Z,10.53
2019-06-01T01:04:37.537Z,11.23
2019-06-01T01:07:09.103Z,10.33
2019-06-01T01:09:41.348Z,10.33
2019-06-01T01:12:12.012Z,10.03
2019-06-01T01:14:42.653Z,10.03
2019-06-01T01:17:13.346Z,10.57
2019-06-01T01:19:44.054Z,9.60
2019-06-01T01:22:15.045Z,8.47
2019-06-01T01:24:46.304Z,11.70
2019-06-01T01:27:17.039Z,10.40
2019-06-01T01:29:48.979Z,11.43
2019-06-01T01:32:19.915Z,9.37
2019-06-01T01:34:51.522Z,9.00
2019-06-01T01:37:22.497Z,10.23
2019-06-01T01:39:54.231Z,9.00
2019-06-01T01:42:25.016Z,9.17
2019-06-01T01:44:56.618Z,9.10
2019-06-01T01:47:27.389Z,9.17
2019-06-01T01:49:58.274Z,10.63
2019-06-01T01:52:28.925Z,10.50
2019-06-01T01:55:00.234Z,10.93
2019-06-01T01:57:30.935Z,9.97
2019-06-01T02:00:01.865Z,12.33
2019-06-01T02:02:32.751Z,13.30
2019-06-01T02:05:03.428Z,9.83
2019-06-01T02:07:34.130Z,9.43
2019-06-01T02:10:05.164Z,9.83
2019-06-01T02:12:35.902Z,11.87
2019-06-01T02:15:07.487Z,9.37
2019-06-01T02:17:38.262Z,11.10
2019-06-01T02:20:09.213Z,9.33
2019-06-01T02:22:39.896Z,12.50
2019-06-01T02:25:10.599Z,11.17
2019-06-01T02:27:42.168Z,10.60
2019-06-01T02:30:16.275Z,10.00
2019-06-01T02:32:46.943Z,13.20
2019-06-01T02:35:19.562Z,12.87
2019-06-01T02:37:50.220Z,15.20
2019-06-01T02:40:21.734Z,14.37
2019-06-01T02:42:52.618Z,14.00
2019-06-01T02:45:23.870Z,15.43
2019-06-01T02:47:55.419Z,16.17
2019-06-01T02:50:26.898Z,15.23
2019-06-01T02:52:57.661Z,15.57
2019-06-01T02:55:31.177Z,17.87
2019-06-01T02:58:02.390Z,16.10
2019-06-01T03:01:38.665Z,15.73
2019-06-01T03:04:11.432Z,15.97
2019-06-01T03:06:45.009Z,18.17
2019-06-01T03:09:15.274Z,19.00
2019-06-01T03:11:46.277Z,16.37
2019-06-01T03:14:19.308Z,18.90
2019-06-01T03:16:52.468Z,16.53
2019-06-01T03:19:25.829Z,16.57
2019-06-01T03:22:03.147Z,16.77
2019-06-01T03:24:38.607Z,17.77
2019-06-01T03:27:12.434Z,17.30
2019-06-01T03:29:45.505Z,16.30
2019-06-01T03:32:34.154Z,15.37
2019-06-01T03:34:47.682Z,17.53
2019-06-01T03:37:17.808Z,16.00
2019-06-01T03:39:48.555Z,15.63
2019-06-01T03:42:18.691Z,16.63
2019-06-01T03:44:48.747Z,14.87
2019-06-01T03:47:18.969Z,17.43
2019-06-01T03:49:49.077Z,15.83
2019-06-01T03:52:19.155Z,15.97
2019-06-01T03:54:49.276Z,17.30
2019-06-01T03:57:19.317Z,14.60
2019-06-01T03:59:49.492Z,15.27
2019-06-01T04:02:32.484Z,14.97
2019-06-01T04:04:51.384Z,14.30
2019-06-01T04:07:21.448Z,15.17
2019-06-01T04:09:51.498Z,14.10
2019-06-01T04:12:21.583Z,14.60
2019-06-01T04:14:51.750Z,13.93
2019-06-01T04:17:21.830Z,14.67
2019-06-01T04:19:52.031Z,14.20
2019-06-01T04:22:23.036Z,14.00
2019-06-01T04:24:53.092Z,13.60
2019-06-01T04:27:23.210Z,14.53
2019-06-01T04:29:53.369Z,14.57
2019-06-01T04:32:23.472Z,13.80
2019-06-01T04:34:54.269Z,14.93
2019-06-01T04:37:24.365Z,14.20
2019-06-01T04:39:54.593Z,14.03
2019-06-01T04:42:24.718Z,14.13
2019-06-01T04:44:54.803Z,15.17
2019-06-01T04:47:24.911Z,13.87
2019-06-01T04:49:57.205Z,14.50
2019-06-01T04:52:28.062Z,14.40
2019-06-01T04:54:58.991Z,15.67
2019-06-01T04:57:29.053Z,13.97
2019-06-01T04:59:59.460Z,13.03
2019-06-01T05:02:29.693Z,14.73
2019-06-01T05:05:00.120Z,13.13
2019-06-01T05:07:30.196Z,14.43
2019-06-01T05:10:01.169Z,12.73
2019-06-01T05:12:31.780Z,13.03
2019-06-01T05:15:02.379Z,14.03
2019-06-01T05:17:32.479Z,14.03
2019-06-01T05:20:02.919Z,13.47
2019-06-01T05:22:33.032Z,14.27
2019-06-01T05:25:04.467Z,12.97
2019-06-01T05:27:34.529Z,13.57
2019-06-01T05:30:04.926Z,13.60
2019-06-01T05:32:34.991Z,13.33
2019-06-01T05:35:05.960Z,13.43
2019-06-01T05:37:36.044Z,14.57
2019-06-01T05:40:08.348Z,13.53
2019-06-01T05:42:39.439Z,14.97
2019-06-01T05:45:11.173Z,14.97
2019-06-01T05:47:41.460Z,15.10
2019-06-01T05:50:12.670Z,15.70
2019-06-01T05:52:42.755Z,14.90
2019-06-01T05:55:14.634Z,14.77
2019-06-01T05:57:44.775Z,13.87
2019-06-01T06:00:17.209Z,15.50
2019-06-01T06:02:47.378Z,15.23
2019-06-01T06:05:18.677Z,14.17
2019-06-01T06:07:48.809Z,15.43
2019-06-01T06:10:20.034Z,15.20
2019-06-01T06:12:50.714Z,15.13
2019-06-01T06:15:21.832Z,14.20
2019-06-01T06:17:52.104Z,13.73
2019-06-01T06:20:22.281Z,14.73
2019-06-01T06:22:52.364Z,16.93
2019-06-01T06:25:22.966Z,14.13
2019-06-01T06:27:53.071Z,14.07
2019-06-01T06:30:23.127Z,18.67
2019-06-01T06:32:53.180Z,13.90
2019-06-01T06:35:23.717Z,15.60
2019-06-01T06:37:53.914Z,14.00
2019-06-01T06:40:24.307Z,12.13
2019-06-01T06:42:54.472Z,13.53
2019-06-01T06:45:24.982Z,12.83
2019-06-01T06:47:55.075Z,12.93
2019-06-01T06:50:25.605Z,14.20
2019-06-01T06:52:56.030Z,13.90
2019-06-01T06:55:26.250Z,12.13
2019-06-01T06:57:56.422Z,12.00
2019-06-01T07:00:27.026Z,11.53
2019-06-01T07:02:57.231Z,13.00
2019-06-01T07:05:30.735Z,12.63
2019-06-01T07:07:59.215Z,15.13
2019-06-01T07:10:29.447Z,10.90
2019-06-01T07:12:59.590Z,11.30
2019-06-01T07:15:29.726Z,11.63
2019-06-01T07:17:59.761Z,10.53
2019-06-01T07:20:29.846Z,9.77
2019-06-01T07:23:00.617Z,7.73
2019-06-01T07:25:30.746Z,8.77
2019-06-01T07:28:00.824Z,13.07
2019-06-01T07:30:30.921Z,10.33
2019-06-01T07:33:01.151Z,9.40
2019-06-01T07:35:31.223Z,10.73
2019-06-01T07:38:01.275Z,10.73
2019-06-01T07:40:31.407Z,9.90
2019-06-01T07:43:01.448Z,12.23
2019-06-01T07:45:34.905Z,10.67
2019-06-01T07:48:03.459Z,13.97
2019-06-01T07:50:33.632Z,9.07
2019-06-01T07:53:03.730Z,9.27
2019-06-01T07:55:33.831Z,11.17
2019-06-01T07:58:03.889Z,12.13
2019-06-01T08:00:33.950Z,11.67
2019-06-01T08:03:03.998Z,10.23
2019-06-01T08:05:34.091Z,8.33
2019-06-01T08:08:04.534Z,10.63
2019-06-01T08:10:34.625Z,11.67
2019-06-01T08:13:04.887Z,12.13
2019-06-01T08:15:34.974Z,8.80
2019-06-01T08:18:05.111Z,8.63
2019-06-01T08:20:36.940Z,8.93
2019-06-01T08:23:07.130Z,9.97
2019-06-01T08:25:37.288Z,11.97
2019-06-01T08:28:07.675Z,10.80
2019-06-01T08:30:38.980Z,7.40
2019-06-01T08:33:10.047Z,7.57
2019-06-01T08:35:47.796Z,8.60
2019-06-01T08:38:25.531Z,7.50
2019-06-01T08:41:01.946Z,6.10
2019-06-01T08:43:40.314Z,6.33
2019-06-01T08:46:15.214Z,11.10
2019-06-01T08:48:53.782Z,6.60
2019-06-01T08:51:30.127Z,7.03
2019-06-01T08:54:08.988Z,8.47
2019-06-01T08:56:40.386Z,7.30
2019-06-01T08:59:10.680Z,7.33
2019-06-01T09:01:42.671Z,6.57
2019-06-01T09:04:13.348Z,6.20
2019-06-01T09:06:43.508Z,6.77
2019-06-01T09:09:14.892Z,6.37
2019-06-01T09:11:45.776Z,5.23
2019-06-01T09:14:16.018Z,5.57
2019-06-01T09:16:47.385Z,8.83
2019-06-01T09:19:17.610Z,7.83
2019-06-01T09:21:47.679Z,5.57
2019-06-01T09:24:18.313Z,4.93
2019-06-01T09:26:50.908Z,27.60
2019-06-01T09:29:21.493Z,7.23
2019-06-01T09:31:51.632Z,4.87
2019-06-01T09:34:21.759Z,5.57
2019-06-01T09:36:55.494Z,6.10
2019-06-01T09:39:24.428Z,7.33
2019-06-01T09:41:54.599Z,8.17
2019-06-01T09:44:26.780Z,4.03
2019-06-01T09:47:00.094Z,4.17
2019-06-01T09:49:32.621Z,5.53
2019-06-01T09:52:02.349Z,6.77
2019-06-01T09:54:34.499Z,7.17
2019-06-01T09:57:14.864Z,7.40
2019-06-01T09:59:46.687Z,4.70
2019-06-01T10:02:18.688Z,5.80
2019-06-01T10:04:48.808Z,8.63
2019-06-01T10:07:18.942Z,5.00
2019-06-01T10:09:49.737Z,4.73
2019-06-01T10:12:20.681Z,5.27
2019-06-01T10:14:51.505Z,6.90
2019-06-01T10:17:22.191Z,5.30
2019-06-01T10:19:52.892Z,7.33
2019-06-01T10:22:23.628Z,8.13
2019-06-01T10:24:54.294Z,9.43
2019-06-01T10:27:24.992Z,7.33
2019-06-01T10:29:55.712Z,4.97
2019-06-01T10:32:26.499Z,5.57
2019-06-01T10:34:57.260Z,4.50
2019-06-01T10:37:27.980Z,5.13
2019-06-01T10:39:58.632Z,3.47
2019-06-01T10:42:29.285Z,4.47
2019-06-01T10:45:00.514Z,6.90
2019-06-01T10:47:31.778Z,6.33
2019-06-01T10:50:02.644Z,3.93
2019-06-01T10:52:34.482Z,4.93
2019-06-01T10:55:05.920Z,7.10
2019-06-01T10:57:36.861Z,3.70
2019-06-01T11:00:07.969Z,3.07
2019-06-01T11:02:38.996Z,3.80
2019-06-01T11:05:10.944Z,5.00
2019-06-01T11:07:42.978Z,3.83
2019-06-01T11:10:15.032Z,3.27
2019-06-01T11:12:45.774Z,3.30
2019-06-01T11:15:16.787Z,5.87
2019-06-01T11:17:47.776Z,7.27
2019-06-01T11:20:19.233Z,4.33
2019-06-01T11:22:50.170Z,4.13
2019-06-01T11:25:21.742Z,6.57
2019-06-01T11:27:52.474Z,3.97
2019-06-01T11:30:24.518Z,5.13
2019-06-01T11:32:55.211Z,5.00
2019-06-01T11:35:25.932Z,4.50
2019-06-01T11:37:56.583Z,4.97
2019-06-01T11:40:27.331Z,4.30
2019-06-01T11:42:57.970Z,5.87
2019-06-01T11:45:28.651Z,4.20
2019-06-01T11:47:59.302Z,5.53
2019-06-01T11:50:29.928Z,4.03
2019-06-01T11:53:00.579Z,3.50
2019-06-01T11:55:32.480Z,4.40
2019-06-01T11:58:03.400Z,5.17
2019-06-01T12:00:46.026Z,4.20
2019-06-01T12:03:22.226Z,4.23
2019-06-01T12:05:58.011Z,5.03
2019-06-01T12:08:28.871Z,5.37
2019-06-01T12:10:59.900Z,5.97
2019-06-01T12:13:30.657Z,5.37
2019-06-01T12:16:11.893Z,4.60
2019-06-01T12:18:50.563Z,4.23
2019-06-01T12:21:28.890Z,7.27
2019-06-01T12:24:10.277Z,4.03
2019-06-01T12:26:41.392Z,5.93
2019-06-01T12:29:12.099Z,4.23
2019-06-01T12:31:43.801Z,3.60
2019-06-01T12:34:22.285Z,3.27
2019-06-01T12:37:04.241Z,4.23
2019-06-01T12:39:52.066Z,4.13
2019-06-01T12:42:32.626Z,5.37
2019-06-01T12:45:14.954Z,5.57
2019-06-01T12:47:58.609Z,4.53
2019-06-01T12:50:42.147Z,4.17
2019-06-01T12:53:29.441Z,4.03
2019-06-01T12:56:15.214Z,4.10
2019-06-01T12:58:57.255Z,7.63
2019-06-01T13:01:28.926Z,3.13
2019-06-01T13:03:59.600Z,5.77
2019-06-01T13:06:30.264Z,2.97
2019-06-01T13:09:01.076Z,6.17
2019-06-01T13:11:32.871Z,5.27
2019-06-01T13:14:04.426Z,9.97
2019-06-01T13:16:35.127Z,3.63
2019-06-01T13:19:06.171Z,4.87
2019-06-01T13:21:38.414Z,4.37
2019-06-01T13:24:09.343Z,3.43
2019-06-01T13:26:39.973Z,3.47
2019-06-01T13:29:10.664Z,5.43
2019-06-01T13:31:42.046Z,4.37
2019-06-01T13:34:13.897Z,3.17
2019-06-01T13:36:46.574Z,4.12
2019-06-01T13:39:17.796Z,3.70
2019-06-01T13:41:49.613Z,3.12
2019-06-01T13:44:20.528Z,4.80
2019-06-01T13:46:51.705Z,2.93
2019-06-01T13:49:22.420Z,5.30
2019-06-01T13:51:54.546Z,2.97
2019-06-01T13:54:25.910Z,5.17
2019-06-01T13:56:59.133Z,4.77
2019-06-01T13:59:30.622Z,3.53
2019-06-01T14:02:01.304Z,5.27
2019-06-01T14:04:32.124Z,2.80
2019-06-01T14:07:02.796Z,2.60
2019-06-01T14:09:33.550Z,5.53
2019-06-01T14:12:04.295Z,3.57
2019-06-01T14:14:34.989Z,2.37
2019-06-01T14:17:05.651Z,3.97
2019-06-01T14:19:36.366Z,3.43
2019-06-01T14:22:07.236Z,2.80
2019-06-01T14:24:42.957Z,4.47
2019-06-01T14:27:10.768Z,2.67
2019-06-01T14:29:41.400Z,3.00
2019-06-01T14:32:12.138Z,2.87
2019-06-01T14:34:42.846Z,2.67
2019-06-01T14:37:25.065Z,3.17
2019-06-01T14:40:02.897Z,3.07
2019-06-01T14:42:53.664Z,3.70
2019-06-01T14:45:24.915Z,4.03
2019-06-01T14:47:55.969Z,3.57
2019-06-01T14:50:26.698Z,2.83
2019-06-01T14:52:57.887Z,3.47
2019-06-01T14:55:28.794Z,6.40
2019-06-01T14:57:59.637Z,3.60
2019-06-01T15:00:32.237Z,3.00
2019-06-01T15:03:03.284Z,5.20
2019-06-01T15:05:34.220Z,3.20
2019-06-01T15:08:04.979Z,2.80
2019-06-01T15:10:35.849Z,4.60
2019-06-01T15:13:06.644Z,2.97
2019-06-01T15:15:42.655Z,3.40
2019-06-01T15:18:13.378Z,2.80
2019-06-01T15:20:44.037Z,3.17
2019-06-01T15:23:14.803Z,3.00
2019-06-01T15:25:45.581Z,2.73
2019-06-01T15:28:16.527Z,3.17
2019-06-01T15:30:48.127Z,5.60
2019-06-01T15:33:18.972Z,3.73
2019-06-01T15:35:49.702Z,3.10
2019-06-01T15:38:20.476Z,5.27
2019-06-01T15:40:51.824Z,6.93
2019-06-01T15:43:22.670Z,3.60
2019-06-01T15:45:53.371Z,3.60
2019-06-01T15:48:24.020Z,3.63
2019-06-01T15:51:00.354Z,7.77
2019-06-01T15:53:27.029Z,5.10
2019-06-01T15:55:59.179Z,4.90
2019-06-01T15:58:30.073Z,4.83
2019-06-01T16:01:01.012Z,4.30
2019-06-01T16:03:34.236Z,3.63
2019-06-01T16:06:04.253Z,4.63
2019-06-01T16:08:35.447Z,3.67
2019-06-01T16:11:06.726Z,2.83
2019-06-01T16:13:38.497Z,3.20
2019-06-01T16:16:09.889Z,3.87
2019-06-01T16:18:41.669Z,4.60
2019-06-01T16:21:12.409Z,2.87
2019-06-01T16:23:50.014Z,3.23
2019-06-01T16:26:16.567Z,5.87
2019-06-01T16:28:47.407Z,3.70
2019-06-01T16:31:18.224Z,4.87
2019-06-01T16:33:48.844Z,3.83
2019-06-01T16:36:19.535Z,3.03
2019-06-01T16:38:50.189Z,3.00
2019-06-01T16:41:20.880Z,4.13
2019-06-01T16:43:51.533Z,3.77
2019-06-01T16:46:22.208Z,4.03
2019-06-01T16:48:52.855Z,3.67
2019-06-01T16:51:23.546Z,2.73
2019-06-01T16:53:54.193Z,5.67
2019-06-01T16:56:24.877Z,3.40
2019-06-01T16:58:56.013Z,3.57
2019-06-01T17:01:27.465Z,3.37
2019-06-01T17:03:58.564Z,3.13
2019-06-01T17:06:29.216Z,7.97
2019-06-01T17:09:00.803Z,3.63
2019-06-01T17:11:31.829Z,3.30
2019-06-01T17:14:02.863Z,3.00
2019-06-01T17:16:33.697Z,4.20
2019-06-01T17:19:05.214Z,9.07
2019-06-01T17:21:36.067Z,3.63
2019-06-01T17:24:08.070Z,2.50
2019-06-01T17:26:39.424Z,2.70
2019-06-01T17:29:10.116Z,3.67
2019-06-01T17:31:53.814Z,5.60
2019-06-01T17:34:14.959Z,2.67
2019-06-01T17:36:45.978Z,4.60
2019-06-01T17:39:16.734Z,3.10
2019-06-01T17:41:47.387Z,2.43
2019-06-01T17:44:18.077Z,4.20
2019-06-01T17:46:53.685Z,2.70
2019-06-01T17:49:22.448Z,2.53
2019-06-01T17:51:53.145Z,2.70
2019-06-01T17:54:23.960Z,6.23
2019-06-01T17:56:54.678Z,2.30
2019-06-01T17:59:25.371Z,4.27
2019-06-01T18:01:56.048Z,2.37
2019-06-01T18:04:26.736Z,2.00
2019-06-01T18:06:57.408Z,2.83
2019-06-01T18:09:28.060Z,2.03
2019-06-01T18:11:58.717Z,4.20
2019-06-01T18:14:29.496Z,3.13
2019-06-01T18:17:00.285Z,3.43
2019-06-01T18:19:30.997Z,4.93
2019-06-01T18:22:02.597Z,4.53
2019-06-01T18:24:33.357Z,4.13
2019-06-01T18:27:04.371Z,6.03
2019-06-01T18:29:38.785Z,6.20
2019-06-01T18:32:07.708Z,7.43
2019-06-01T18:34:38.381Z,5.83
2019-06-01T18:37:09.615Z,5.13
2019-06-01T18:39:41.720Z,5.40
2019-06-01T18:42:12.496Z,4.23
2019-06-01T18:44:43.624Z,3.60
2019-06-01T18:47:31.113Z,5.27
2019-06-01T18:49:46.875Z,5.07
2019-06-01T18:52:18.194Z,6.40
2019-06-01T18:54:48.883Z,3.60
2019-06-01T18:57:21.596Z,5.07
2019-06-01T18:59:52.010Z,4.23
2019-06-01T19:02:22.776Z,4.47
2019-06-01T19:04:53.443Z,5.27
2019-06-01T19:07:24.142Z,7.30
2019-06-01T19:09:54.787Z,12.30
2019-06-01T19:12:25.491Z,9.20
2019-06-01T19:14:56.168Z,7.20
2019-06-01T19:17:26.861Z,7.83
2019-06-01T19:19:57.490Z,5.27
2019-06-01T19:22:28.224Z,7.70
2019-06-01T19:24:58.911Z,5.77
2019-06-01T19:27:29.584Z,8.20
2019-06-01T19:30:00.247Z,11.10
2019-06-01T19:32:30.931Z,8.30
2019-06-01T19:35:01.708Z,9.63
2019-06-01T19:37:33.708Z,9.17
2019-06-01T19:40:05.106Z,7.27
2019-06-01T19:42:35.994Z,11.20
2019-06-01T19:45:14.323Z,13.60
2019-06-01T19:47:39.975Z,13.17
2019-06-01T19:50:10.804Z,17.40
2019-06-01T19:52:41.524Z,17.83
2019-06-01T19:55:12.844Z,18.27
2019-06-01T19:57:44.095Z,15.73
2019-06-01T20:00:16.320Z,13.70
2019-06-01T20:02:49.417Z,12.73
2019-06-01T20:05:20.150Z,11.00
2019-06-01T20:07:51.610Z,12.70
2019-06-01T20:10:22.808Z,14.30
2019-06-01T20:12:54.235Z,13.97
2019-06-01T20:15:24.895Z,18.17
2019-06-01T20:17:56.192Z,19.00
2019-06-01T20:20:26.853Z,22.40
2019-06-01T20:22:57.610Z,25.80
2019-06-01T20:25:28.277Z,21.13
2019-06-01T20:27:58.944Z,14.03
2019-06-01T20:30:29.595Z,14.70
2019-06-01T20:33:00.394Z,14.97
2019-06-01T20:35:31.089Z,20.97
2019-06-01T20:38:01.808Z,13.83
2019-06-01T20:40:32.469Z,12.43
2019-06-01T20:43:03.262Z,14.63
2019-06-01T20:45:35.936Z,12.53
2019-06-01T20:48:06.660Z,15.83
2019-06-01T20:50:37.473Z,13.10
2019-06-01T20:53:08.107Z,12.40
2019-06-01T20:55:39.922Z,11.37
2019-06-01T20:58:10.981Z,11.60
2019-06-01T21:00:43.213Z,11.73
2019-06-01T21:03:14.065Z,11.00
2019-06-01T21:05:44.751Z,14.97
2019-06-01T21:08:16.050Z,19.70
2019-06-01T21:10:47.691Z,19.83
2019-06-01T21:13:20.181Z,17.33
2019-06-01T21:15:51.831Z,20.43
2019-06-01T21:18:22.783Z,18.83
2019-06-01T21:20:54.090Z,18.90
2019-06-01T21:23:25.388Z,16.37
2019-06-01T21:25:56.772Z,16.37
2019-06-01T21:28:27.495Z,23.73
2019-06-01T21:30:58.952Z,18.70
2019-06-01T21:33:29.670Z,24.30
2019-06-01T21:36:00.436Z,33.43
2019-06-01T21:38:32.517Z,42.13
2019-06-01T21:41:03.714Z,44.30
2019-06-01T21:43:35.490Z,51.33
2019-06-01T21:46:06.515Z,58.43
2019-06-01T21:48:37.135Z,56.87
2019-06-01T21:51:07.804Z,46.77
2019-06-01T21:53:38.604Z,37.93
2019-06-01T21:56:09.253Z,37.40
2019-06-01T21:58:40.306Z,29.00
2019-06-01T22:01:11.559Z,30.30
2019-06-01T22:03:43.870Z,29.03
2019-06-01T22:06:15.038Z,24.67
2019-06-01T22:08:52.694Z,17.10
2019-06-01T22:11:21.363Z,12.53
2019-06-01T22:13:52.351Z,16.47
2019-06-01T22:16:23.653Z,18.17
2019-06-01T22:18:54.439Z,14.10
2019-06-01T22:21:25.867Z,13.20
2019-06-01T22:23:56.597Z,14.23
2019-06-01T22:26:28.366Z,12.03
2019-06-01T22:28:59.322Z,12.67
2019-06-01T22:31:30.973Z,13.93
2019-06-01T22:34:02.563Z,14.00
2019-06-01T22:36:34.285Z,11.27
2019-06-01T22:39:07.149Z,14.37
2019-06-01T22:41:37.865Z,11.70
2019-06-01T22:44:08.560Z,14.53
2019-06-01T22:46:39.280Z,9.80
2019-06-01T22:49:10.530Z,10.17
2019-06-01T22:51:41.789Z,9.50
2019-06-01T22:54:12.435Z,10.27
2019-06-01T22:56:43.113Z,10.97
2019-06-01T22:59:13.889Z,9.23
2019-06-01T23:01:44.501Z,11.40
2019-06-01T23:04:15.480Z,7.47
2019-06-01T23:06:46.247Z,7.97
2019-06-01T23:09:16.905Z,6.93
2019-06-01T23:11:47.642Z,6.57
2019-06-01T23:14:18.443Z,7.50
2019-06-01T23:16:49.061Z,5.80
2019-06-01T23:19:21.617Z,8.70
2019-06-01T23:21:52.400Z,6.73
2019-06-01T23:24:23.994Z,7.43
2019-06-01T23:26:55.012Z,8.13
2019-06-01T23:29:26.084Z,6.43
2019-06-01T23:31:56.842Z,8.47
2019-06-01T23:34:28.737Z,6.67
2019-06-01T23:36:59.406Z,13.93
2019-06-01T23:39:30.793Z,10.80
2019-06-01T23:42:01.872Z,9.33
2019-06-01T23:44:34.995Z,8.93
2019-06-01T23:47:05.580Z,7.87
2019-06-01T23:49:36.214Z,10.73
2019-06-01T23:52:07.557Z,9.03
2019-06-01T23:54:38.492Z,9.30
2019-06-01T23:57:09.186Z,7.63
2019-06-01T23:59:39.929Z,10.20
